sensor_id;sensor_type;location;lat;lon;timestamp;temperature;humidity
14614;DHT22;7393;51.446;6.800;2023-06-14T00:02:02;20.30;1.00
14614;DHT22;7393;51.446;6.800;2023-06-14T00:04:30;20.40;1.00
14614;DHT22;7393;51.446;6.800;2023-06-14T00:06:56;20.40;1.00
14614;DHT22;7393;51.446;6.800;2023-06-14T00:09:23;20.50;1.00
14614;DHT22;7393;51.446;6.800;2023-06-14T00:11:50;20.50;1.00
14614;DHT22;7393;51.446;6.800;2023-06-14T00:14:18;20.50;1.00
14614;DHT22;7393;51.446;6.800;2023-06-14T00:16:45;20.50;1.00
14614;DHT22;7393;51.446;6.800;2023-06-14T00:19:13;20.60;1.00
14614;DHT22;7393;51.446;6.800;2023-06-14T00:21:40;20.60;1.00
14614;DHT22;7393;51.446;6.800;2023-06-14T00:24:07;20.60;1.00
14614;DHT22;7393;51.446;6.800;2023-06-14T00:26:34;20.60;1.00
14614;DHT22;7393;51.446;6.800;2023-06-14T00:29:01;20.60;1.00
14614;DHT22;7393;51.446;6.800;2023-06-14T00:31:29;20.60;1.00
14614;DHT22;7393;51.446;6.800;2023-06-14T00:33:56;20.50;1.00
14614;DHT22;7393;51.446;6.800;2023-06-14T00:36:23;20.50;1.00
14614;DHT22;7393;51.446;6.800;2023-06-14T00:38:50;20.60;1.00
14614;DHT22;7393;51.446;6.800;2023-06-14T00:41:16;20.60;1.00
14614;DHT22;7393;51.446;6.800;2023-06-14T00:43:43;20.60;1.00
14614;DHT22;7393;51.446;6.800;2023-06-14T00:46:10;20.60;1.00
14614;DHT22;7393;51.446;6.800;2023-06-14T00:48:39;20.50;1.00
14614;DHT22;7393;51.446;6.800;2023-06-14T00:51:06;20.50;1.00
14614;DHT22;7393;51.446;6.800;2023-06-14T00:53:33;20.50;1.00
14614;DHT22;7393;51.446;6.800;2023-06-14T00:56:01;20.50;1.00
14614;DHT22;7393;51.446;6.800;2023-06-14T00:58:28;20.50;1.00
14614;DHT22;7393;51.446;6.800;2023-06-14T01:00:55;20.50;1.00
14614;DHT22;7393;51.446;6.800;2023-06-14T01:03:23;20.40;1.00
14614;DHT22;7393;51.446;6.800;2023-06-14T01:05:58;20.50;1.00
14614;DHT22;7393;51.446;6.800;2023-06-14T01:08:34;20.40;1.00
14614;DHT22;7393;51.446;6.800;2023-06-14T01:11:12;20.40;1.00
14614;DHT22;7393;51.446;6.800;2023-06-14T01:13:42;20.40;1.00
14614;DHT22;7393;51.446;6.800;2023-06-14T01:16:10;20.30;1.00
14614;DHT22;7393;51.446;6.800;2023-06-14T01:18:38;20.20;1.00
14614;DHT22;7393;51.446;6.800;2023-06-14T01:21:20;20.20;1.00
14614;DHT22;7393;51.446;6.800;2023-06-14T01:23:48;20.20;1.00
14614;DHT22;7393;51.446;6.800;2023-06-14T01:26:19;20.10;1.00
14614;DHT22;7393;51.446;6.800;2023-06-14T01:28:47;20.10;1.00
14614;DHT22;7393;51.446;6.800;2023-06-14T01:31:18;20.10;1.00
14614;DHT22;7393;51.446;6.800;2023-06-14T01:33:48;20.10;1.00
14614;DHT22;7393;51.446;6.800;2023-06-14T01:36:16;20.10;1.00
14614;DHT22;7393;51.446;6.800;2023-06-14T01:38:44;20.10;1.00
14614;DHT22;7393;51.446;6.800;2023-06-14T01:41:13;20.10;1.00
14614;DHT22;7393;51.446;6.800;2023-06-14T01:43:41;20.10;1.00
14614;DHT22;7393;51.446;6.800;2023-06-14T01:46:09;20.00;1.00
14614;DHT22;7393;51.446;6.800;2023-06-14T01:48:37;20.00;1.00
14614;DHT22;7393;51.446;6.800;2023-06-14T01:51:04;19.90;1.00
14614;DHT22;7393;51.446;6.800;2023-06-14T01:53:31;19.90;1.00
14614;DHT22;7393;51.446;6.800;2023-06-14T01:55:58;19.80;1.00
14614;DHT22;7393;51.446;6.800;2023-06-14T01:58:27;19.80;1.00
14614;DHT22;7393;51.446;6.800;2023-06-14T02:00:54;19.80;1.00
14614;DHT22;7393;51.446;6.800;2023-06-14T02:03:22;19.80;1.00
14614;DHT22;7393;51.446;6.800;2023-06-14T02:05:49;19.80;1.00
14614;DHT22;7393;51.446;6.800;2023-06-14T02:08:16;19.80;1.00
14614;DHT22;7393;51.446;6.800;2023-06-14T02:10:43;19.80;1.00
14614;DHT22;7393;51.446;6.800;2023-06-14T02:13:10;19.80;1.00
14614;DHT22;7393;51.446;6.800;2023-06-14T02:15:38;19.80;1.00
14614;DHT22;7393;51.446;6.800;2023-06-14T02:18:05;19.70;1.00
14614;DHT22;7393;51.446;6.800;2023-06-14T02:20:32;19.70;1.00
14614;DHT22;7393;51.446;6.800;2023-06-14T02:22:59;19.70;1.00
14614;DHT22;7393;51.446;6.800;2023-06-14T02:25:26;19.60;1.00
14614;DHT22;7393;51.446;6.800;2023-06-14T02:27:53;19.60;1.00
14614;DHT22;7393;51.446;6.800;2023-06-14T02:30:21;19.60;1.00
14614;DHT22;7393;51.446;6.800;2023-06-14T02:32:49;19.60;1.00
14614;DHT22;7393;51.446;6.800;2023-06-14T02:35:16;19.60;1.00
14614;DHT22;7393;51.446;6.800;2023-06-14T02:37:43;19.50;1.00
14614;DHT22;7393;51.446;6.800;2023-06-14T02:40:11;19.50;1.00
14614;DHT22;7393;51.446;6.800;2023-06-14T02:42:37;19.50;1.00
14614;DHT22;7393;51.446;6.800;2023-06-14T02:45:05;19.40;1.00
14614;DHT22;7393;51.446;6.800;2023-06-14T02:47:33;19.40;1.00
14614;DHT22;7393;51.446;6.800;2023-06-14T02:50:01;19.40;1.00
14614;DHT22;7393;51.446;6.800;2023-06-14T02:52:28;19.40;1.00
14614;DHT22;7393;51.446;6.800;2023-06-14T02:54:55;19.30;1.00
14614;DHT22;7393;51.446;6.800;2023-06-14T02:57:22;19.30;1.00
14614;DHT22;7393;51.446;6.800;2023-06-14T02:59:49;19.30;1.00
14614;DHT22;7393;51.446;6.800;2023-06-14T03:02:18;19.30;1.00
14614;DHT22;7393;51.446;6.800;2023-06-14T03:04:45;19.20;1.00
14614;DHT22;7393;51.446;6.800;2023-06-14T03:07:13;19.20;1.00
14614;DHT22;7393;51.446;6.800;2023-06-14T03:09:45;19.20;1.00
14614;DHT22;7393;51.446;6.800;2023-06-14T03:12:12;19.20;1.00
14614;DHT22;7393;51.446;6.800;2023-06-14T03:14:40;19.20;1.00
14614;DHT22;7393;51.446;6.800;2023-06-14T03:17:07;19.10;1.00
14614;DHT22;7393;51.446;6.800;2023-06-14T03:19:35;19.10;1.00
14614;DHT22;7393;51.446;6.800;2023-06-14T03:22:02;19.00;1.00
14614;DHT22;7393;51.446;6.800;2023-06-14T03:24:30;19.00;1.00
14614;DHT22;7393;51.446;6.800;2023-06-14T03:27:02;19.00;1.00
14614;DHT22;7393;51.446;6.800;2023-06-14T03:29:28;18.90;1.00
14614;DHT22;7393;51.446;6.800;2023-06-14T03:32:00;18.90;1.00
14614;DHT22;7393;51.446;6.800;2023-06-14T03:34:27;18.90;1.00
14614;DHT22;7393;51.446;6.800;2023-06-14T03:36:54;18.90;1.00
14614;DHT22;7393;51.446;6.800;2023-06-14T03:39:21;18.80;1.00
14614;DHT22;7393;51.446;6.800;2023-06-14T03:41:49;18.80;1.00
14614;DHT22;7393;51.446;6.800;2023-06-14T03:44:17;18.80;1.00
14614;DHT22;7393;51.446;6.800;2023-06-14T03:46:44;18.80;1.00
14614;DHT22;7393;51.446;6.800;2023-06-14T03:49:11;18.70;1.00
14614;DHT22;7393;51.446;6.800;2023-06-14T03:51:38;18.70;1.00
14614;DHT22;7393;51.446;6.800;2023-06-14T03:54:06;18.60;1.00
14614;DHT22;7393;51.446;6.800;2023-06-14T03:56:33;18.60;1.00
14614;DHT22;7393;51.446;6.800;2023-06-14T03:59:01;18.60;1.00
14614;DHT22;7393;51.446;6.800;2023-06-14T04:01:29;18.60;1.00
14614;DHT22;7393;51.446;6.800;2023-06-14T04:03:56;18.60;1.00
14614;DHT22;7393;51.446;6.800;2023-06-14T04:06:24;18.60;1.00
14614;DHT22;7393;51.446;6.800;2023-06-14T04:08:58;18.60;1.00
14614;DHT22;7393;51.446;6.800;2023-06-14T04:11:28;18.60;1.00
14614;DHT22;7393;51.446;6.800;2023-06-14T04:13:55;18.60;1.00
14614;DHT22;7393;51.446;6.800;2023-06-14T04:16:24;18.60;1.00
14614;DHT22;7393;51.446;6.800;2023-06-14T04:18:51;18.60;1.00
14614;DHT22;7393;51.446;6.800;2023-06-14T04:21:18;18.60;1.00
14614;DHT22;7393;51.446;6.800;2023-06-14T04:23:45;18.50;1.00
14614;DHT22;7393;51.446;6.800;2023-06-14T04:26:12;18.50;1.00
14614;DHT22;7393;51.446;6.800;2023-06-14T04:28:40;18.60;1.00
14614;DHT22;7393;51.446;6.800;2023-06-14T04:31:07;18.60;1.00
14614;DHT22;7393;51.446;6.800;2023-06-14T04:33:36;18.60;1.00
14614;DHT22;7393;51.446;6.800;2023-06-14T04:36:09;18.60;1.00
14614;DHT22;7393;51.446;6.800;2023-06-14T04:38:37;18.70;1.00
14614;DHT22;7393;51.446;6.800;2023-06-14T04:41:04;18.70;1.00
14614;DHT22;7393;51.446;6.800;2023-06-14T04:43:31;18.70;1.00
14614;DHT22;7393;51.446;6.800;2023-06-14T04:46:04;18.70;1.00
14614;DHT22;7393;51.446;6.800;2023-06-14T04:48:37;18.80;1.00
14614;DHT22;7393;51.446;6.800;2023-06-14T04:51:05;18.80;1.00
14614;DHT22;7393;51.446;6.800;2023-06-14T04:53:32;18.80;1.00
14614;DHT22;7393;51.446;6.800;2023-06-14T04:55:59;18.80;1.00
14614;DHT22;7393;51.446;6.800;2023-06-14T04:58:27;18.80;1.00
14614;DHT22;7393;51.446;6.800;2023-06-14T05:00:54;18.90;1.00
14614;DHT22;7393;51.446;6.800;2023-06-14T05:03:21;18.90;1.00
14614;DHT22;7393;51.446;6.800;2023-06-14T05:05:50;19.00;1.00
14614;DHT22;7393;51.446;6.800;2023-06-14T05:08:18;19.00;1.00
14614;DHT22;7393;51.446;6.800;2023-06-14T05:10:45;19.10;1.00
14614;DHT22;7393;51.446;6.800;2023-06-14T05:13:12;19.20;1.00
14614;DHT22;7393;51.446;6.800;2023-06-14T05:15:39;19.20;1.00
14614;DHT22;7393;51.446;6.800;2023-06-14T05:18:06;19.30;1.00
14614;DHT22;7393;51.446;6.800;2023-06-14T05:20:34;19.30;1.00
14614;DHT22;7393;51.446;6.800;2023-06-14T05:23:03;19.40;1.00
14614;DHT22;7393;51.446;6.800;2023-06-14T05:25:30;19.50;1.00
14614;DHT22;7393;51.446;6.800;2023-06-14T05:27:57;19.60;1.00
14614;DHT22;7393;51.446;6.800;2023-06-14T05:30:24;19.70;1.00
14614;DHT22;7393;51.446;6.800;2023-06-14T05:32:51;19.80;1.00
14614;DHT22;7393;51.446;6.800;2023-06-14T05:35:18;19.90;1.00
14614;DHT22;7393;51.446;6.800;2023-06-14T05:37:47;19.90;1.00
14614;DHT22;7393;51.446;6.800;2023-06-14T05:40:15;20.00;1.00
14614;DHT22;7393;51.446;6.800;2023-06-14T05:42:43;20.10;1.00
14614;DHT22;7393;51.446;6.800;2023-06-14T05:45:10;20.20;1.00
14614;DHT22;7393;51.446;6.800;2023-06-14T05:47:37;20.20;1.00
14614;DHT22;7393;51.446;6.800;2023-06-14T05:50:04;20.30;1.00
14614;DHT22;7393;51.446;6.800;2023-06-14T05:52:31;20.40;1.00
14614;DHT22;7393;51.446;6.800;2023-06-14T05:54:59;20.50;1.00
14614;DHT22;7393;51.446;6.800;2023-06-14T05:57:27;20.50;1.00
14614;DHT22;7393;51.446;6.800;2023-06-14T05:59:54;20.60;1.00
14614;DHT22;7393;51.446;6.800;2023-06-14T06:02:21;20.70;1.00
14614;DHT22;7393;51.446;6.800;2023-06-14T06:04:47;20.70;1.00
14614;DHT22;7393;51.446;6.800;2023-06-14T06:07:14;20.70;1.00
14614;DHT22;7393;51.446;6.800;2023-06-14T06:09:41;20.80;1.00
14614;DHT22;7393;51.446;6.800;2023-06-14T06:12:09;20.80;1.00
14614;DHT22;7393;51.446;6.800;2023-06-14T06:14:37;20.80;1.00
14614;DHT22;7393;51.446;6.800;2023-06-14T06:17:04;20.80;1.00
14614;DHT22;7393;51.446;6.800;2023-06-14T06:19:32;20.80;1.00
14614;DHT22;7393;51.446;6.800;2023-06-14T06:21:58;20.80;1.00
14614;DHT22;7393;51.446;6.800;2023-06-14T06:24:25;20.90;1.00
14614;DHT22;7393;51.446;6.800;2023-06-14T06:26:52;20.90;1.00
14614;DHT22;7393;51.446;6.800;2023-06-14T06:29:19;20.90;1.00
14614;DHT22;7393;51.446;6.800;2023-06-14T06:31:47;21.00;1.00
14614;DHT22;7393;51.446;6.800;2023-06-14T06:34:14;21.00;1.00
14614;DHT22;7393;51.446;6.800;2023-06-14T06:36:41;21.00;1.00
14614;DHT22;7393;51.446;6.800;2023-06-14T06:39:08;21.00;1.00
14614;DHT22;7393;51.446;6.800;2023-06-14T06:41:36;21.00;1.00
14614;DHT22;7393;51.446;6.800;2023-06-14T06:44:05;21.00;1.00
14614;DHT22;7393;51.446;6.800;2023-06-14T06:46:32;21.00;1.00
14614;DHT22;7393;51.446;6.800;2023-06-14T06:49:00;21.10;1.00
14614;DHT22;7393;51.446;6.800;2023-06-14T06:51:27;21.10;1.00
14614;DHT22;7393;51.446;6.800;2023-06-14T06:53:54;21.10;1.00
14614;DHT22;7393;51.446;6.800;2023-06-14T06:56:21;21.10;1.00
14614;DHT22;7393;51.446;6.800;2023-06-14T06:58:48;21.20;1.00
14614;DHT22;7393;51.446;6.800;2023-06-14T07:01:15;21.20;1.00
14614;DHT22;7393;51.446;6.800;2023-06-14T07:03:42;21.30;1.00
14614;DHT22;7393;51.446;6.800;2023-06-14T07:06:10;21.30;1.00
14614;DHT22;7393;51.446;6.800;2023-06-14T07:08:37;21.30;1.00
14614;DHT22;7393;51.446;6.800;2023-06-14T07:11:05;21.30;1.00
14614;DHT22;7393;51.446;6.800;2023-06-14T07:13:32;21.40;1.00
14614;DHT22;7393;51.446;6.800;2023-06-14T07:16:00;21.50;1.00
14614;DHT22;7393;51.446;6.800;2023-06-14T07:18:27;21.50;1.00
14614;DHT22;7393;51.446;6.800;2023-06-14T07:20:54;21.50;1.00
14614;DHT22;7393;51.446;6.800;2023-06-14T07:23:22;21.60;1.00
14614;DHT22;7393;51.446;6.800;2023-06-14T07:25:49;21.60;1.00
14614;DHT22;7393;51.446;6.800;2023-06-14T07:28:16;21.70;1.00
14614;DHT22;7393;51.446;6.800;2023-06-14T07:30:43;21.80;1.00
14614;DHT22;7393;51.446;6.800;2023-06-14T07:33:10;21.90;1.00
14614;DHT22;7393;51.446;6.800;2023-06-14T07:35:37;22.00;1.00
14614;DHT22;7393;51.446;6.800;2023-06-14T07:38:04;22.10;1.00
14614;DHT22;7393;51.446;6.800;2023-06-14T07:40:32;22.20;1.00
14614;DHT22;7393;51.446;6.800;2023-06-14T07:42:59;22.40;1.00
14614;DHT22;7393;51.446;6.800;2023-06-14T07:45:27;22.50;1.00
14614;DHT22;7393;51.446;6.800;2023-06-14T07:47:54;22.60;1.00
14614;DHT22;7393;51.446;6.800;2023-06-14T07:50:23;22.80;1.00
14614;DHT22;7393;51.446;6.800;2023-06-14T07:52:50;22.90;1.00
14614;DHT22;7393;51.446;6.800;2023-06-14T07:55:17;23.00;1.00
14614;DHT22;7393;51.446;6.800;2023-06-14T07:57:45;23.20;1.00
14614;DHT22;7393;51.446;6.800;2023-06-14T08:00:13;23.30;1.00
14614;DHT22;7393;51.446;6.800;2023-06-14T08:02:41;23.50;1.00
14614;DHT22;7393;51.446;6.800;2023-06-14T08:05:09;23.50;1.00
14614;DHT22;7393;51.446;6.800;2023-06-14T08:07:37;23.60;1.00
14614;DHT22;7393;51.446;6.800;2023-06-14T08:10:04;23.70;1.00
14614;DHT22;7393;51.446;6.800;2023-06-14T08:12:32;23.80;1.00
14614;DHT22;7393;51.446;6.800;2023-06-14T08:15:00;23.90;1.00
14614;DHT22;7393;51.446;6.800;2023-06-14T08:17:27;24.00;1.00
14614;DHT22;7393;51.446;6.800;2023-06-14T08:19:54;24.00;1.00
14614;DHT22;7393;51.446;6.800;2023-06-14T08:22:22;24.10;1.00
14614;DHT22;7393;51.446;6.800;2023-06-14T08:24:49;24.10;1.00
14614;DHT22;7393;51.446;6.800;2023-06-14T08:27:16;24.20;1.00
14614;DHT22;7393;51.446;6.800;2023-06-14T08:29:43;24.20;1.00
14614;DHT22;7393;51.446;6.800;2023-06-14T08:32:11;24.40;1.00
14614;DHT22;7393;51.446;6.800;2023-06-14T08:34:38;24.40;1.00
14614;DHT22;7393;51.446;6.800;2023-06-14T08:37:05;24.40;1.00
14614;DHT22;7393;51.446;6.800;2023-06-14T08:39:32;24.50;1.00
14614;DHT22;7393;51.446;6.800;2023-06-14T08:42:01;24.40;1.00
14614;DHT22;7393;51.446;6.800;2023-06-14T08:44:28;24.40;1.00
14614;DHT22;7393;51.446;6.800;2023-06-14T08:46:56;24.40;1.00
14614;DHT22;7393;51.446;6.800;2023-06-14T08:49:25;24.40;1.00
14614;DHT22;7393;51.446;6.800;2023-06-14T08:52:00;24.50;1.00
14614;DHT22;7393;51.446;6.800;2023-06-14T08:54:28;24.60;1.00
14614;DHT22;7393;51.446;6.800;2023-06-14T08:56:56;24.60;1.00
14614;DHT22;7393;51.446;6.800;2023-06-14T08:59:25;24.70;1.00
14614;DHT22;7393;51.446;6.800;2023-06-14T09:01:53;24.80;1.00
14614;DHT22;7393;51.446;6.800;2023-06-14T09:04:20;24.90;1.00
14614;DHT22;7393;51.446;6.800;2023-06-14T09:06:50;25.10;1.00
14614;DHT22;7393;51.446;6.800;2023-06-14T09:09:19;25.10;1.00
14614;DHT22;7393;51.446;6.800;2023-06-14T09:11:46;25.10;1.00
14614;DHT22;7393;51.446;6.800;2023-06-14T09:14:13;25.20;1.00
14614;DHT22;7393;51.446;6.800;2023-06-14T09:16:40;25.30;1.00
14614;DHT22;7393;51.446;6.800;2023-06-14T09:19:07;25.30;1.00
14614;DHT22;7393;51.446;6.800;2023-06-14T09:21:35;25.10;1.00
14614;DHT22;7393;51.446;6.800;2023-06-14T09:24:05;24.90;1.00
14614;DHT22;7393;51.446;6.800;2023-06-14T09:26:32;24.80;1.00
14614;DHT22;7393;51.446;6.800;2023-06-14T09:28:58;24.60;1.00
14614;DHT22;7393;51.446;6.800;2023-06-14T09:31:25;24.60;1.00
14614;DHT22;7393;51.446;6.800;2023-06-14T09:33:57;24.70;1.00
14614;DHT22;7393;51.446;6.800;2023-06-14T09:36:25;24.80;1.00
14614;DHT22;7393;51.446;6.800;2023-06-14T09:38:53;25.00;1.00
14614;DHT22;7393;51.446;6.800;2023-06-14T09:41:30;25.10;1.00
14614;DHT22;7393;51.446;6.800;2023-06-14T09:43:59;25.30;1.00
14614;DHT22;7393;51.446;6.800;2023-06-14T09:46:28;25.40;1.00
14614;DHT22;7393;51.446;6.800;2023-06-14T09:48:55;25.50;1.00
14614;DHT22;7393;51.446;6.800;2023-06-14T09:51:23;25.50;1.00
14614;DHT22;7393;51.446;6.800;2023-06-14T09:53:50;25.60;1.00
14614;DHT22;7393;51.446;6.800;2023-06-14T09:56:25;25.70;1.00
14614;DHT22;7393;51.446;6.800;2023-06-14T09:58:55;25.70;1.00
14614;DHT22;7393;51.446;6.800;2023-06-14T10:01:23;25.70;1.00
14614;DHT22;7393;51.446;6.800;2023-06-14T10:03:51;25.80;1.00
14614;DHT22;7393;51.446;6.800;2023-06-14T10:06:22;25.80;1.00
14614;DHT22;7393;51.446;6.800;2023-06-14T10:08:51;25.90;1.00
14614;DHT22;7393;51.446;6.800;2023-06-14T10:11:18;26.00;1.00
14614;DHT22;7393;51.446;6.800;2023-06-14T10:13:47;26.20;1.00
14614;DHT22;7393;51.446;6.800;2023-06-14T10:16:19;26.30;1.00
14614;DHT22;7393;51.446;6.800;2023-06-14T10:18:51;26.30;1.00
14614;DHT22;7393;51.446;6.800;2023-06-14T10:21:23;26.10;1.00
14614;DHT22;7393;51.446;6.800;2023-06-14T10:23:53;26.20;1.00
14614;DHT22;7393;51.446;6.800;2023-06-14T10:26:21;26.30;1.00
14614;DHT22;7393;51.446;6.800;2023-06-14T10:29:01;26.30;1.00
14614;DHT22;7393;51.446;6.800;2023-06-14T10:31:40;26.50;1.00
14614;DHT22;7393;51.446;6.800;2023-06-14T10:34:08;26.60;1.00
14614;DHT22;7393;51.446;6.800;2023-06-14T10:36:35;26.80;1.00
14614;DHT22;7393;51.446;6.800;2023-06-14T10:39:05;27.00;1.00
14614;DHT22;7393;51.446;6.800;2023-06-14T10:41:35;27.10;1.00
14614;DHT22;7393;51.446;6.800;2023-06-14T10:47:25;27.00;1.00
14614;DHT22;7393;51.446;6.800;2023-06-14T10:49:53;27.10;1.00
14614;DHT22;7393;51.446;6.800;2023-06-14T10:52:22;27.10;1.00
14614;DHT22;7393;51.446;6.800;2023-06-14T10:55:10;27.10;1.00
14614;DHT22;7393;51.446;6.800;2023-06-14T10:57:41;27.20;1.00
14614;DHT22;7393;51.446;6.800;2023-06-14T11:00:09;27.40;1.00
14614;DHT22;7393;51.446;6.800;2023-06-14T11:02:52;27.50;1.00
14614;DHT22;7393;51.446;6.800;2023-06-14T11:05:25;27.80;1.00
14614;DHT22;7393;51.446;6.800;2023-06-14T11:08:02;27.80;1.00
14614;DHT22;7393;51.446;6.800;2023-06-14T11:10:36;27.90;1.00
14614;DHT22;7393;51.446;6.800;2023-06-14T11:13:03;27.90;1.00
14614;DHT22;7393;51.446;6.800;2023-06-14T11:15:31;27.90;1.00
14614;DHT22;7393;51.446;6.800;2023-06-14T11:18:01;27.80;1.00
14614;DHT22;7393;51.446;6.800;2023-06-14T11:20:30;27.90;1.00
14614;DHT22;7393;51.446;6.800;2023-06-14T11:22:57;28.10;1.00
14614;DHT22;7393;51.446;6.800;2023-06-14T11:25:24;28.30;1.00
14614;DHT22;7393;51.446;6.800;2023-06-14T11:27:52;28.50;1.00
14614;DHT22;7393;51.446;6.800;2023-06-14T11:30:19;28.60;1.00
14614;DHT22;7393;51.446;6.800;2023-06-14T11:32:47;28.70;1.00
14614;DHT22;7393;51.446;6.800;2023-06-14T11:35:15;28.70;1.00
14614;DHT22;7393;51.446;6.800;2023-06-14T11:37:43;28.80;1.00
14614;DHT22;7393;51.446;6.800;2023-06-14T11:40:12;28.90;1.00
14614;DHT22;7393;51.446;6.800;2023-06-14T11:42:40;29.00;1.00
14614;DHT22;7393;51.446;6.800;2023-06-14T11:45:09;29.00;1.00
14614;DHT22;7393;51.446;6.800;2023-06-14T11:47:37;29.10;1.00
14614;DHT22;7393;51.446;6.800;2023-06-14T11:50:06;29.10;1.00
14614;DHT22;7393;51.446;6.800;2023-06-14T11:52:36;29.20;1.00
14614;DHT22;7393;51.446;6.800;2023-06-14T11:55:04;29.30;1.00
14614;DHT22;7393;51.446;6.800;2023-06-14T11:57:34;29.40;1.00
14614;DHT22;7393;51.446;6.800;2023-06-14T12:00:03;29.40;1.00
14614;DHT22;7393;51.446;6.800;2023-06-14T12:02:33;29.50;1.00
14614;DHT22;7393;51.446;6.800;2023-06-14T12:05:04;29.60;1.00
14614;DHT22;7393;51.446;6.800;2023-06-14T12:07:34;29.70;1.00
14614;DHT22;7393;51.446;6.800;2023-06-14T12:10:05;29.70;1.00
14614;DHT22;7393;51.446;6.800;2023-06-14T12:12:35;29.80;1.00
14614;DHT22;7393;51.446;6.800;2023-06-14T12:15:03;29.80;1.00
14614;DHT22;7393;51.446;6.800;2023-06-14T12:17:32;29.80;1.00
14614;DHT22;7393;51.446;6.800;2023-06-14T12:20:05;29.80;1.00
14614;DHT22;7393;51.446;6.800;2023-06-14T12:22:36;29.90;1.00
14614;DHT22;7393;51.446;6.800;2023-06-14T12:25:04;30.00;1.00
14614;DHT22;7393;51.446;6.800;2023-06-14T12:27:31;30.10;1.00
14614;DHT22;7393;51.446;6.800;2023-06-14T12:29:59;29.90;1.00
14614;DHT22;7393;51.446;6.800;2023-06-14T12:32:26;29.80;1.00
14614;DHT22;7393;51.446;6.800;2023-06-14T12:34:53;29.80;1.00
14614;DHT22;7393;51.446;6.800;2023-06-14T12:37:20;29.80;1.00
14614;DHT22;7393;51.446;6.800;2023-06-14T12:39:48;29.80;1.00
14614;DHT22;7393;51.446;6.800;2023-06-14T12:42:16;29.70;1.00
14614;DHT22;7393;51.446;6.800;2023-06-14T12:44:43;29.70;1.00
14614;DHT22;7393;51.446;6.800;2023-06-14T12:47:10;29.80;1.00
14614;DHT22;7393;51.446;6.800;2023-06-14T12:49:37;29.90;1.00
14614;DHT22;7393;51.446;6.800;2023-06-14T12:52:04;30.10;1.00
14614;DHT22;7393;51.446;6.800;2023-06-14T12:54:31;30.40;1.00
14614;DHT22;7393;51.446;6.800;2023-06-14T12:56:59;30.50;1.00
14614;DHT22;7393;51.446;6.800;2023-06-14T12:59:26;30.60;1.00
14614;DHT22;7393;51.446;6.800;2023-06-14T13:01:59;30.60;1.00
14614;DHT22;7393;51.446;6.800;2023-06-14T13:04:26;30.70;1.00
14614;DHT22;7393;51.446;6.800;2023-06-14T13:06:53;30.50;1.00
14614;DHT22;7393;51.446;6.800;2023-06-14T13:09:19;30.60;1.00
14614;DHT22;7393;51.446;6.800;2023-06-14T13:11:46;30.60;1.00
14614;DHT22;7393;51.446;6.800;2023-06-14T13:14:14;30.70;1.00
14614;DHT22;7393;51.446;6.800;2023-06-14T13:16:41;30.70;1.00
14614;DHT22;7393;51.446;6.800;2023-06-14T13:19:08;30.70;1.00
14614;DHT22;7393;51.446;6.800;2023-06-14T13:21:35;30.60;1.00
14614;DHT22;7393;51.446;6.800;2023-06-14T13:24:02;30.50;1.00
14614;DHT22;7393;51.446;6.800;2023-06-14T13:26:29;30.50;1.00
14614;DHT22;7393;51.446;6.800;2023-06-14T13:28:56;30.60;1.00
14614;DHT22;7393;51.446;6.800;2023-06-14T13:31:24;30.70;1.00
14614;DHT22;7393;51.446;6.800;2023-06-14T13:33:51;30.70;1.00
14614;DHT22;7393;51.446;6.800;2023-06-14T13:36:18;30.70;1.00
14614;DHT22;7393;51.446;6.800;2023-06-14T13:38:44;30.60;1.00
14614;DHT22;7393;51.446;6.800;2023-06-14T13:41:11;30.50;1.00
14614;DHT22;7393;51.446;6.800;2023-06-14T13:43:38;30.30;1.00
14614;DHT22;7393;51.446;6.800;2023-06-14T13:46:04;30.20;1.00
14614;DHT22;7393;51.446;6.800;2023-06-14T13:48:33;30.20;1.00
14614;DHT22;7393;51.446;6.800;2023-06-14T13:51:00;30.10;1.00
14614;DHT22;7393;51.446;6.800;2023-06-14T13:53:29;30.10;1.00
14614;DHT22;7393;51.446;6.800;2023-06-14T13:55:56;30.20;1.00
14614;DHT22;7393;51.446;6.800;2023-06-14T13:58:23;30.30;1.00
14614;DHT22;7393;51.446;6.800;2023-06-14T14:00:50;30.50;1.00
14614;DHT22;7393;51.446;6.800;2023-06-14T14:03:16;30.60;1.00
14614;DHT22;7393;51.446;6.800;2023-06-14T14:05:46;30.60;1.00
14614;DHT22;7393;51.446;6.800;2023-06-14T14:08:13;30.60;1.00
14614;DHT22;7393;51.446;6.800;2023-06-14T14:10:40;30.40;1.00
14614;DHT22;7393;51.446;6.800;2023-06-14T14:13:07;30.20;1.00
14614;DHT22;7393;51.446;6.800;2023-06-14T14:15:33;30.00;1.00
14614;DHT22;7393;51.446;6.800;2023-06-14T14:18:01;29.90;1.00
14614;DHT22;7393;51.446;6.800;2023-06-14T14:20:29;29.80;1.00
14614;DHT22;7393;51.446;6.800;2023-06-14T14:22:58;29.70;1.00
14614;DHT22;7393;51.446;6.800;2023-06-14T14:25:25;29.70;1.00
14614;DHT22;7393;51.446;6.800;2023-06-14T14:27:51;29.70;1.00
14614;DHT22;7393;51.446;6.800;2023-06-14T14:30:18;29.70;1.00
14614;DHT22;7393;51.446;6.800;2023-06-14T14:32:49;29.80;1.00
14614;DHT22;7393;51.446;6.800;2023-06-14T14:35:16;29.80;1.00
14614;DHT22;7393;51.446;6.800;2023-06-14T14:37:43;29.80;1.00
14614;DHT22;7393;51.446;6.800;2023-06-14T14:40:12;29.70;1.00
14614;DHT22;7393;51.446;6.800;2023-06-14T14:42:39;29.40;1.00
14614;DHT22;7393;51.446;6.800;2023-06-14T14:45:06;29.40;1.00
14614;DHT22;7393;51.446;6.800;2023-06-14T14:47:33;29.40;1.00
14614;DHT22;7393;51.446;6.800;2023-06-14T14:50:00;29.40;1.00
14614;DHT22;7393;51.446;6.800;2023-06-14T14:52:27;29.40;1.00
14614;DHT22;7393;51.446;6.800;2023-06-14T14:54:54;29.50;1.00
14614;DHT22;7393;51.446;6.800;2023-06-14T14:57:22;29.50;1.00
14614;DHT22;7393;51.446;6.800;2023-06-14T14:59:49;29.40;1.00
14614;DHT22;7393;51.446;6.800;2023-06-14T15:02:16;28.90;1.00
14614;DHT22;7393;51.446;6.800;2023-06-14T15:04:43;28.50;1.00
14614;DHT22;7393;51.446;6.800;2023-06-14T15:07:09;28.40;1.00
14614;DHT22;7393;51.446;6.800;2023-06-14T15:09:38;28.30;1.00
14614;DHT22;7393;51.446;6.800;2023-06-14T15:12:07;28.30;1.00
14614;DHT22;7393;51.446;6.800;2023-06-14T15:14:35;28.30;1.00
14614;DHT22;7393;51.446;6.800;2023-06-14T15:17:02;28.20;1.00
14614;DHT22;7393;51.446;6.800;2023-06-14T15:19:29;28.00;1.00
14614;DHT22;7393;51.446;6.800;2023-06-14T15:21:56;27.80;1.00
14614;DHT22;7393;51.446;6.800;2023-06-14T15:24:24;27.70;1.00
14614;DHT22;7393;51.446;6.800;2023-06-14T15:26:51;27.50;1.00
14614;DHT22;7393;51.446;6.800;2023-06-14T15:29:18;27.50;1.00
14614;DHT22;7393;51.446;6.800;2023-06-14T15:31:46;27.50;1.00
14614;DHT22;7393;51.446;6.800;2023-06-14T15:34:14;27.50;1.00
14614;DHT22;7393;51.446;6.800;2023-06-14T15:36:41;27.50;1.00
14614;DHT22;7393;51.446;6.800;2023-06-14T15:39:07;27.40;1.00
14614;DHT22;7393;51.446;6.800;2023-06-14T15:41:34;27.40;1.00
14614;DHT22;7393;51.446;6.800;2023-06-14T15:44:01;27.40;1.00
14614;DHT22;7393;51.446;6.800;2023-06-14T15:46:28;27.30;1.00
14614;DHT22;7393;51.446;6.800;2023-06-14T15:48:56;27.30;1.00
14614;DHT22;7393;51.446;6.800;2023-06-14T15:51:23;27.30;1.00
14614;DHT22;7393;51.446;6.800;2023-06-14T15:53:49;27.10;1.00
14614;DHT22;7393;51.446;6.800;2023-06-14T15:56:17;27.00;1.00
14614;DHT22;7393;51.446;6.800;2023-06-14T15:58:44;26.90;1.00
14614;DHT22;7393;51.446;6.800;2023-06-14T16:01:11;26.90;1.00
14614;DHT22;7393;51.446;6.800;2023-06-14T16:03:38;26.90;1.00
14614;DHT22;7393;51.446;6.800;2023-06-14T16:06:06;26.80;1.00
14614;DHT22;7393;51.446;6.800;2023-06-14T16:08:32;26.80;1.00
14614;DHT22;7393;51.446;6.800;2023-06-14T16:10:59;26.80;1.00